createdAt,value
2019-03-03T00:00:29.630Z,0.00
2019-03-03T00:01:29.673Z,0.00
2019-03-03T00:02:29.627Z,0.00
2019-03-03T00:03:29.611Z,0.00
2019-03-03T00:04:29.586Z,0.00
2019-03-03T00:05:29.514Z,0.00
2019-03-03T00:06:29.485Z,0.00
2019-03-03T00:07:29.554Z,0.00
2019-03-03T00:08:29.560Z,0.00
2019-03-03T00:09:29.545Z,0.00
2019-03-03T00:10:29.578Z,0.00
2019-03-03T00:11:29.502Z,0.00
2019-03-03T00:12:29.500Z,0.00
2019-03-03T00:13:29.490Z,0.00
2019-03-03T00:14:29.470Z,0.00
2019-03-03T00:15:29.370Z,0.00
2019-03-03T00:16:29.494Z,0.00
2019-03-03T00:17:29.457Z,0.00
2019-03-03T00:18:29.445Z,0.00
2019-03-03T00:19:29.438Z,0.00
2019-03-03T00:20:29.435Z,0.00
2019-03-03T00:21:29.428Z,0.00
2019-03-03T00:22:29.422Z,0.00
2019-03-03T00:23:29.397Z,0.00
2019-03-03T00:24:29.388Z,0.00
2019-03-03T00:25:29.374Z,0.00
2019-03-03T00:26:29.348Z,0.00
2019-03-03T00:27:29.383Z,0.00
2019-03-03T00:28:29.324Z,0.00
2019-03-03T00:29:29.310Z,0.00
2019-03-03T00:30:29.296Z,0.00
2019-03-03T00:31:30.000Z,0.00
2019-03-03T00:32:29.304Z,0.00
2019-03-03T00:33:29.314Z,0.00
2019-03-03T00:34:29.305Z,0.00
2019-03-03T00:35:31.529Z,0.00
2019-03-03T00:36:29.234Z,0.00
2019-03-03T00:37:29.219Z,0.00
2019-03-03T00:38:29.223Z,0.00
2019-03-03T00:39:29.259Z,0.00
2019-03-03T00:40:29.196Z,0.00
2019-03-03T00:41:29.174Z,0.00
2019-03-03T00:42:29.195Z,0.00
2019-03-03T00:43:29.154Z,0.00
2019-03-03T00:44:29.142Z,0.00
2019-03-03T00:45:29.175Z,0.00
2019-03-03T00:46:29.144Z,0.00
2019-03-03T00:47:29.118Z,0.00
2019-03-03T00:48:29.107Z,0.00
2019-03-03T00:49:29.090Z,0.00
2019-03-03T00:50:29.095Z,0.00
2019-03-03T00:51:29.101Z,0.00
2019-03-03T00:52:29.055Z,0.00
2019-03-03T00:53:29.075Z,0.00
2019-03-03T00:54:29.037Z,0.00
2019-03-03T00:55:29.025Z,0.00
2019-03-03T00:56:29.013Z,0.00
2019-03-03T00:57:29.078Z,0.00
2019-03-03T00:58:29.005Z,0.00
2019-03-03T00:59:29.011Z,0.00
2019-03-03T01:00:28.987Z,0.00
2019-03-03T01:01:28.950Z,0.00
2019-03-03T01:02:28.947Z,0.00
2019-03-03T01:03:28.971Z,0.00
2019-03-03T01:04:28.927Z,0.00
2019-03-03T01:05:28.949Z,0.00
2019-03-03T01:06:28.836Z,0.00
2019-03-03T01:07:28.807Z,0.00
2019-03-03T01:08:28.913Z,0.00
2019-03-03T01:09:28.892Z,0.00
2019-03-03T01:10:28.859Z,0.00
2019-03-03T01:11:28.870Z,0.00
2019-03-03T01:12:28.883Z,0.00
2019-03-03T01:13:28.847Z,0.00
2019-03-03T01:14:28.873Z,0.00
2019-03-03T01:15:28.822Z,0.00
2019-03-03T01:16:28.818Z,0.00
2019-03-03T01:17:28.801Z,0.00
2019-03-03T01:18:28.786Z,0.00
2019-03-03T01:19:28.776Z,0.00
2019-03-03T01:20:28.802Z,0.00
2019-03-03T01:21:28.756Z,0.00
2019-03-03T01:22:28.765Z,0.00
2019-03-03T01:23:28.721Z,0.00
2019-03-03T01:24:28.721Z,0.00
2019-03-03T01:25:28.796Z,0.00
2019-03-03T01:26:28.697Z,0.00
2019-03-03T01:27:28.688Z,0.00
2019-03-03T01:28:28.678Z,0.00
2019-03-03T01:29:28.671Z,0.00
2019-03-03T01:30:28.694Z,0.00
2019-03-03T01:31:28.626Z,0.00
2019-03-03T01:32:28.648Z,0.00
2019-03-03T01:33:28.612Z,0.00
2019-03-03T01:34:28.674Z,0.00
2019-03-03T01:35:28.580Z,0.00
2019-03-03T01:36:28.634Z,0.00
2019-03-03T01:37:28.581Z,0.00
2019-03-03T01:38:28.558Z,0.00
2019-03-03T01:39:28.560Z,0.00
2019-03-03T01:40:28.553Z,0.00
2019-03-03T01:41:28.571Z,0.00
2019-03-03T01:42:28.531Z,0.00
2019-03-03T01:43:28.558Z,0.00
2019-03-03T01:44:28.501Z,0.00
2019-03-03T01:45:28.492Z,0.00
2019-03-03T01:46:28.485Z,0.00
2019-03-03T01:47:28.468Z,0.00
2019-03-03T01:48:28.462Z,0.00
2019-03-03T01:49:28.478Z,0.00
2019-03-03T01:50:28.415Z,0.00
2019-03-03T01:51:28.447Z,0.00
2019-03-03T01:52:28.447Z,0.00
2019-03-03T01:53:28.396Z,0.00
2019-03-03T01:54:28.391Z,0.00
2019-03-03T01:55:28.392Z,0.00
2019-03-03T01:56:28.365Z,0.00
2019-03-03T01:57:28.383Z,0.00
2019-03-03T01:58:28.340Z,0.00
2019-03-03T01:59:28.330Z,0.00
2019-03-03T02:00:28.305Z,0.00
2019-03-03T02:01:28.290Z,0.00
2019-03-03T02:02:28.300Z,0.00
2019-03-03T02:03:28.327Z,0.00
2019-03-03T02:04:28.271Z,0.00
2019-03-03T02:05:28.273Z,0.00
2019-03-03T02:06:28.156Z,0.00
2019-03-03T02:07:28.225Z,0.00
2019-03-03T02:08:28.125Z,0.00
2019-03-03T02:09:28.260Z,0.00
2019-03-03T02:10:28.127Z,0.00
2019-03-03T02:11:28.108Z,0.00
2019-03-03T02:12:28.188Z,0.00
2019-03-03T02:13:28.166Z,0.00
2019-03-03T02:14:28.157Z,0.00
2019-03-03T02:15:28.191Z,0.00
2019-03-03T02:16:28.164Z,0.00
2019-03-03T02:17:28.127Z,0.00
2019-03-03T02:18:28.116Z,0.00
2019-03-03T02:19:28.117Z,0.00
2019-03-03T02:20:28.143Z,0.00
2019-03-03T02:21:28.122Z,0.00
2019-03-03T02:22:28.090Z,0.00
2019-03-03T02:23:28.075Z,0.00
2019-03-03T02:24:28.060Z,0.00
2019-03-03T02:25:28.106Z,0.00
2019-03-03T02:26:28.032Z,0.00
2019-03-03T02:27:28.084Z,0.00
2019-03-03T02:28:28.003Z,0.00
2019-03-03T02:29:28.024Z,0.00
2019-03-03T02:30:28.524Z,0.00
2019-03-03T02:31:27.964Z,0.00
2019-03-03T02:32:27.949Z,0.00
2019-03-03T02:33:27.981Z,0.00
2019-03-03T02:34:27.934Z,0.00
2019-03-03T02:35:27.925Z,0.00
2019-03-03T02:36:28.020Z,0.00
2019-03-03T02:37:27.920Z,0.00
2019-03-03T02:38:27.964Z,0.00
2019-03-03T02:39:27.912Z,0.00
2019-03-03T02:40:27.891Z,0.00
2019-03-03T02:41:27.893Z,0.00
2019-03-03T02:42:27.876Z,0.00
2019-03-03T02:43:27.849Z,0.00
2019-03-03T02:44:27.880Z,0.00
2019-03-03T02:45:27.824Z,0.00
2019-03-03T02:46:27.828Z,0.00
2019-03-03T02:47:27.840Z,0.00
2019-03-03T02:48:27.803Z,0.00
2019-03-03T02:49:27.830Z,0.00
2019-03-03T02:50:27.785Z,0.00
2019-03-03T02:51:27.760Z,0.00
2019-03-03T02:52:27.767Z,0.00
2019-03-03T02:53:27.748Z,0.00
2019-03-03T02:54:27.734Z,0.00
2019-03-03T02:55:27.758Z,0.00
2019-03-03T02:56:27.711Z,0.00
2019-03-03T02:57:27.702Z,0.00
2019-03-03T02:58:27.693Z,0.00
2019-03-03T02:59:27.682Z,0.00
2019-03-03T03:00:27.668Z,0.00
2019-03-03T03:01:27.792Z,0.00
2019-03-03T03:02:27.646Z,0.00
2019-03-03T03:03:27.631Z,0.00
2019-03-03T03:04:27.673Z,0.00
2019-03-03T03:05:27.622Z,0.00
2019-03-03T03:06:27.519Z,0.00
2019-03-03T03:07:27.505Z,0.00
2019-03-03T03:08:27.569Z,0.00
2019-03-03T03:09:27.572Z,0.00
2019-03-03T03:10:27.590Z,0.00
2019-03-03T03:11:27.553Z,0.00
2019-03-03T03:12:27.439Z,0.00
2019-03-03T03:13:27.532Z,0.00
2019-03-03T03:14:27.512Z,0.00
2019-03-03T03:15:27.534Z,0.00
2019-03-03T03:16:27.441Z,0.00
2019-03-03T03:17:27.486Z,0.00
2019-03-03T03:18:27.469Z,0.00
2019-03-03T03:19:27.464Z,0.00
2019-03-03T03:20:27.450Z,0.00
2019-03-03T03:21:27.439Z,0.00
2019-03-03T03:22:27.464Z,0.00
2019-03-03T03:23:27.406Z,0.00
2019-03-03T03:24:27.313Z,0.00
2019-03-03T03:25:27.405Z,0.00
2019-03-03T03:26:27.382Z,0.00
2019-03-03T03:27:27.409Z,0.00
2019-03-03T03:28:27.411Z,0.00
2019-03-03T03:29:27.348Z,0.00
2019-03-03T03:30:27.356Z,0.00
2019-03-03T03:31:27.374Z,0.00
2019-03-03T03:32:27.320Z,0.00
2019-03-03T03:33:27.314Z,0.00
2019-03-03T03:34:27.332Z,0.00
2019-03-03T03:35:27.277Z,0.00
2019-03-03T03:36:27.272Z,0.00
2019-03-03T03:37:27.259Z,0.00
2019-03-03T03:38:27.248Z,0.00
2019-03-03T03:39:27.284Z,0.00
2019-03-03T03:40:27.216Z,0.00
2019-03-03T03:41:27.192Z,0.00
2019-03-03T03:42:27.196Z,0.00
2019-03-03T03:43:27.207Z,0.00
2019-03-03T03:44:27.228Z,0.00
2019-03-03T03:45:27.215Z,0.00
2019-03-03T03:46:27.156Z,0.00
2019-03-03T03:47:27.135Z,0.00
2019-03-03T03:48:27.187Z,0.00
2019-03-03T03:49:27.106Z,0.00
2019-03-03T03:50:27.176Z,0.00
2019-03-03T03:51:27.091Z,0.00
2019-03-03T03:52:27.105Z,0.00
2019-03-03T03:53:27.072Z,0.00
2019-03-03T03:54:27.084Z,0.00
2019-03-03T03:55:27.085Z,0.00
2019-03-03T03:56:27.038Z,0.00
2019-03-03T03:57:27.024Z,0.00
2019-03-03T03:58:27.017Z,0.00
2019-03-03T03:59:27.009Z,0.00
2019-03-03T04:00:26.986Z,0.00
2019-03-03T04:01:27.023Z,0.00
2019-03-03T04:02:26.965Z,0.00
2019-03-03T04:03:26.951Z,0.00
2019-03-03T04:04:26.941Z,0.00
2019-03-03T04:05:26.937Z,0.00
2019-03-03T04:06:26.972Z,0.00
2019-03-03T04:07:26.916Z,0.00
2019-03-03T04:08:26.901Z,0.00
2019-03-03T04:09:26.895Z,0.00
2019-03-03T04:10:26.878Z,0.00
2019-03-03T04:11:26.864Z,0.00
2019-03-03T04:12:26.899Z,0.00
2019-03-03T04:13:26.840Z,0.00
2019-03-03T04:14:26.906Z,0.00
2019-03-03T04:15:26.842Z,0.00
2019-03-03T04:16:26.826Z,0.00
2019-03-03T04:17:26.818Z,0.00
2019-03-03T04:18:26.810Z,0.00
2019-03-03T04:19:26.832Z,0.00
2019-03-03T04:20:26.808Z,0.00
2019-03-03T04:21:26.776Z,0.00
2019-03-03T04:22:26.757Z,0.00
2019-03-03T04:23:26.804Z,0.00
2019-03-03T04:24:26.744Z,0.00
2019-03-03T04:25:26.740Z,0.00
2019-03-03T04:26:26.718Z,0.00
2019-03-03T04:27:26.709Z,0.00
2019-03-03T04:28:26.703Z,0.00
2019-03-03T04:29:26.726Z,0.00
2019-03-03T04:30:26.687Z,0.00
2019-03-03T04:31:26.674Z,0.00
2019-03-03T04:32:26.652Z,0.00
2019-03-03T04:33:26.637Z,0.00
2019-03-03T04:34:26.680Z,0.00
2019-03-03T04:35:26.620Z,0.00
2019-03-03T04:36:26.606Z,0.00
2019-03-03T04:37:26.604Z,0.00
2019-03-03T04:38:26.588Z,0.00
2019-03-03T04:39:26.566Z,0.00
2019-03-03T04:40:26.608Z,0.00
2019-03-03T04:41:26.532Z,0.00
2019-03-03T04:42:26.531Z,0.00
2019-03-03T04:43:26.522Z,0.00
2019-03-03T04:44:26.502Z,0.00
2019-03-03T04:45:26.524Z,0.00
2019-03-03T04:46:26.490Z,0.00
2019-03-03T04:47:26.461Z,0.00
2019-03-03T04:48:26.469Z,0.00
2019-03-03T04:49:26.453Z,0.00
2019-03-03T04:50:26.471Z,0.00
2019-03-03T04:51:26.478Z,0.00
2019-03-03T04:52:26.446Z,0.00
2019-03-03T04:53:26.424Z,0.00
2019-03-03T04:54:26.412Z,0.00
2019-03-03T04:55:26.394Z,0.00
2019-03-03T04:56:26.404Z,0.00
2019-03-03T04:57:26.393Z,0.00
2019-03-03T04:58:26.370Z,0.00
2019-03-03T04:59:26.356Z,0.00
2019-03-03T05:00:26.353Z,0.00
2019-03-03T05:01:26.333Z,0.00
2019-03-03T05:02:26.442Z,0.00
2019-03-03T05:03:26.322Z,0.00
2019-03-03T05:04:26.307Z,0.00
2019-03-03T05:05:26.293Z,0.00
2019-03-03T05:06:26.260Z,0.00
2019-03-03T05:07:26.303Z,0.00
2019-03-03T05:08:26.253Z,0.00
2019-03-03T05:09:26.243Z,0.00
2019-03-03T05:10:26.261Z,0.00
2019-03-03T05:11:28.151Z,0.00
2019-03-03T05:12:26.189Z,0.00
2019-03-03T05:13:26.215Z,0.00
2019-03-03T05:14:26.173Z,0.00
2019-03-03T05:15:26.163Z,0.00
2019-03-03T05:16:26.152Z,0.00
2019-03-03T05:17:26.139Z,0.00
2019-03-03T05:18:26.184Z,0.00
2019-03-03T05:19:26.121Z,0.00
2019-03-03T05:20:26.118Z,0.00
2019-03-03T05:21:26.097Z,0.00
2019-03-03T05:22:26.011Z,0.00
2019-03-03T05:23:26.020Z,0.00
2019-03-03T05:24:33.855Z,0.00
2019-03-03T05:25:27.125Z,0.00
2019-03-03T05:26:26.067Z,0.00
2019-03-03T05:27:26.057Z,0.00
2019-03-03T05:28:26.035Z,0.00
2019-03-03T05:29:26.026Z,0.00
2019-03-03T05:30:26.001Z,0.00
2019-03-03T05:31:26.038Z,0.00
2019-03-03T05:32:25.986Z,0.00
2019-03-03T05:33:25.997Z,0.00
2019-03-03T05:34:25.954Z,0.00
2019-03-03T05:35:25.949Z,0.00
2019-03-03T05:36:25.969Z,0.00
2019-03-03T05:37:25.932Z,0.00
2019-03-03T05:38:25.937Z,0.00
2019-03-03T05:39:25.921Z,0.00
2019-03-03T05:40:25.901Z,0.00
2019-03-03T05:41:25.869Z,0.00
2019-03-03T05:42:25.902Z,0.00
2019-03-03T05:43:25.853Z,0.00
2019-03-03T05:44:25.864Z,0.00
2019-03-03T05:45:25.863Z,0.00
2019-03-03T05:46:25.839Z,4.00
2019-03-03T05:47:25.853Z,4.00
2019-03-03T05:48:25.846Z,4.00
2019-03-03T05:49:25.810Z,4.00
2019-03-03T05:50:25.784Z,0.00
2019-03-03T05:51:25.774Z,0.00
2019-03-03T05:52:25.773Z,4.00
2019-03-03T05:53:25.769Z,4.00
2019-03-03T05:54:25.803Z,4.00
2019-03-03T05:55:25.731Z,4.00
2019-03-03T05:56:25.740Z,4.00
2019-03-03T05:57:25.709Z,4.00
2019-03-03T05:58:25.699Z,4.00
2019-03-03T05:59:25.706Z,4.00
2019-03-03T06:00:25.721Z,8.00
2019-03-03T06:01:25.690Z,8.00
2019-03-03T06:02:25.659Z,4.00
2019-03-03T06:03:25.644Z,4.00
2019-03-03T06:04:25.624Z,8.00
2019-03-03T06:05:25.660Z,8.00
2019-03-03T06:06:25.614Z,8.00
2019-03-03T06:07:25.588Z,8.00
2019-03-03T06:08:25.592Z,8.00
2019-03-03T06:09:25.607Z,8.00
2019-03-03T06:10:25.566Z,12.00
2019-03-03T06:11:25.587Z,8.00
2019-03-03T06:12:25.549Z,8.00
2019-03-03T06:13:25.529Z,12.00
2019-03-03T06:14:25.520Z,12.00
2019-03-03T06:15:25.508Z,8.00
2019-03-03T06:16:25.537Z,12.00
2019-03-03T06:17:25.488Z,12.00
2019-03-03T06:18:25.479Z,16.00
2019-03-03T06:19:25.496Z,16.00
2019-03-03T06:20:25.455Z,16.00
2019-03-03T06:21:25.441Z,20.00
2019-03-03T06:22:25.482Z,20.00
2019-03-03T06:23:25.424Z,24.00
2019-03-03T06:24:25.422Z,24.00
2019-03-03T06:25:25.397Z,24.00
2019-03-03T06:26:25.401Z,24.00
2019-03-03T06:27:25.407Z,24.00
2019-03-03T06:28:25.427Z,28.00
2019-03-03T06:29:25.366Z,36.00
2019-03-03T06:30:25.352Z,40.00
2019-03-03T06:31:25.328Z,44.00
2019-03-03T06:32:25.334Z,48.00
2019-03-03T06:33:25.328Z,48.00
2019-03-03T06:34:25.339Z,52.00
2019-03-03T06:35:25.287Z,60.00
2019-03-03T06:36:25.279Z,60.00
2019-03-03T06:37:25.263Z,60.00
2019-03-03T06:38:25.284Z,64.00
2019-03-03T06:39:25.259Z,64.00
2019-03-03T06:40:25.264Z,68.00
2019-03-03T06:41:25.237Z,72.00
2019-03-03T06:42:25.203Z,76.00
2019-03-03T06:43:25.232Z,80.00
2019-03-03T06:44:25.244Z,88.00
2019-03-03T06:45:25.215Z,96.00
2019-03-03T06:46:25.165Z,104.00
2019-03-03T06:47:26.023Z,108.00
2019-03-03T06:48:25.148Z,120.00
2019-03-03T06:49:25.135Z,124.00
2019-03-03T06:50:25.077Z,132.00
2019-03-03T06:51:25.126Z,132.00
2019-03-03T06:52:25.032Z,140.00
2019-03-03T06:53:25.007Z,140.00
2019-03-03T06:54:25.000Z,140.00
2019-03-03T06:55:24.997Z,140.00
2019-03-03T06:56:25.123Z,132.00
2019-03-03T06:57:25.063Z,132.00
2019-03-03T06:58:25.058Z,128.00
2019-03-03T06:59:25.052Z,124.00
2019-03-03T07:00:24.937Z,124.00
2019-03-03T07:01:24.919Z,124.00
2019-03-03T07:02:24.968Z,124.00
2019-03-03T07:03:24.907Z,120.00
2019-03-03T07:04:24.881Z,120.00
2019-03-03T07:05:26.109Z,116.00
2019-03-03T07:06:24.860Z,120.00
2019-03-03T07:07:24.858Z,144.00
2019-03-03T07:08:24.888Z,180.00
2019-03-03T07:09:24.841Z,204.00
2019-03-03T07:10:24.813Z,208.00
2019-03-03T07:11:24.831Z,204.00
2019-03-03T07:12:24.787Z,224.00
2019-03-03T07:13:24.811Z,264.00
2019-03-03T07:14:24.794Z,260.00
2019-03-03T07:15:24.754Z,260.00
2019-03-03T07:16:26.343Z,236.00
2019-03-03T07:17:24.833Z,212.00
2019-03-03T07:18:24.716Z,204.00
2019-03-03T07:19:24.759Z,196.00
2019-03-03T07:20:24.725Z,192.00
2019-03-03T07:21:24.824Z,176.00
2019-03-03T07:22:24.772Z,160.00
2019-03-03T07:23:24.790Z,148.00
2019-03-03T07:24:24.664Z,140.00
2019-03-03T07:25:24.637Z,136.00
2019-03-03T07:26:24.780Z,132.00
2019-03-03T07:27:24.623Z,132.00
2019-03-03T07:28:24.635Z,136.00
2019-03-03T07:29:24.607Z,140.00
2019-03-03T07:30:24.600Z,148.00
2019-03-03T07:31:24.671Z,160.00
2019-03-03T07:32:24.709Z,172.00
2019-03-03T07:33:24.565Z,188.00
2019-03-03T07:34:24.551Z,200.00
2019-03-03T07:35:24.581Z,204.00
2019-03-03T07:36:24.525Z,208.00
2019-03-03T07:37:24.564Z,208.00
2019-03-03T07:38:24.546Z,208.00
2019-03-03T07:39:24.497Z,196.00
2019-03-03T07:40:24.481Z,204.00
2019-03-03T07:41:24.467Z,208.00
2019-03-03T07:42:24.464Z,220.00
2019-03-03T07:43:24.472Z,240.00
2019-03-03T07:44:24.526Z,252.00
2019-03-03T07:45:24.444Z,264.00
2019-03-03T07:46:24.434Z,272.00
2019-03-03T07:47:24.558Z,268.00
2019-03-03T07:48:24.407Z,268.00
2019-03-03T07:49:24.438Z,268.00
2019-03-03T07:50:24.381Z,264.00
2019-03-03T07:51:24.352Z,280.00
2019-03-03T07:52:24.356Z,292.00
2019-03-03T07:53:24.346Z,312.00
2019-03-03T07:54:24.338Z,328.00
2019-03-03T07:55:24.380Z,388.00
2019-03-03T07:56:24.326Z,368.00
2019-03-03T07:57:24.404Z,400.00
2019-03-03T07:58:24.298Z,940.00
2019-03-03T07:59:24.301Z,452.00
2019-03-03T08:00:24.275Z,384.00
2019-03-03T08:01:24.281Z,732.00
2019-03-03T08:02:24.247Z,464.00
2019-03-03T08:03:24.317Z,464.00
2019-03-03T08:04:24.322Z,376.00
2019-03-03T08:05:24.209Z,724.00
2019-03-03T08:06:24.255Z,1076.00
2019-03-03T08:07:24.241Z,1052.00
2019-03-03T08:08:24.297Z,1080.00
2019-03-03T08:09:24.175Z,1112.00
2019-03-03T08:10:24.249Z,1124.00
2019-03-03T08:11:24.143Z,964.00
2019-03-03T08:12:24.240Z,1040.00
2019-03-03T08:13:24.269Z,1120.00
2019-03-03T08:14:24.218Z,1172.00
2019-03-03T08:15:24.207Z,1020.00
2019-03-03T08:16:24.242Z,1012.00
2019-03-03T08:17:24.174Z,1044.00
2019-03-03T08:18:24.156Z,1092.00
2019-03-03T08:19:24.173Z,1072.00
2019-03-03T08:20:24.151Z,1016.00
2019-03-03T08:21:24.133Z,964.00
2019-03-03T08:22:24.169Z,1016.00
2019-03-03T08:23:24.124Z,1016.00
2019-03-03T08:24:24.099Z,980.00
2019-03-03T08:25:24.084Z,992.00
2019-03-03T08:26:24.067Z,964.00
2019-03-03T08:27:24.134Z,956.00
2019-03-03T08:28:23.965Z,936.00
2019-03-03T08:29:23.949Z,992.00
2019-03-03T08:30:23.945Z,1004.00
2019-03-03T08:31:23.929Z,1020.00
2019-03-03T08:32:23.972Z,1044.00
2019-03-03T08:33:23.932Z,1048.00
2019-03-03T08:34:23.922Z,1044.00
2019-03-03T08:35:23.905Z,996.00
2019-03-03T08:36:23.874Z,984.00
2019-03-03T08:37:23.873Z,1016.00
2019-03-03T08:38:23.905Z,1008.00
2019-03-03T08:39:23.838Z,1000.00
2019-03-03T08:40:23.844Z,1028.00
2019-03-03T08:41:23.813Z,1068.00
2019-03-03T08:42:23.816Z,1120.00
2019-03-03T08:43:23.801Z,1076.00
2019-03-03T08:44:23.830Z,1036.00
2019-03-03T08:45:23.783Z,996.00
2019-03-03T08:46:23.777Z,1016.00
2019-03-03T08:47:23.748Z,1064.00
2019-03-03T08:48:23.756Z,1124.00
2019-03-03T08:49:23.727Z,1104.00
2019-03-03T08:50:23.741Z,1112.00
2019-03-03T08:51:23.710Z,1156.00
2019-03-03T08:52:23.707Z,1132.00
2019-03-03T08:53:23.785Z,1140.00
2019-03-03T08:54:23.681Z,1120.00
2019-03-03T08:55:23.706Z,1124.00
2019-03-03T08:56:23.659Z,1148.00
2019-03-03T08:57:23.646Z,1140.00
2019-03-03T08:58:23.633Z,1092.00
2019-03-03T08:59:23.616Z,1140.00
2019-03-03T09:00:23.615Z,1180.00
2019-03-03T09:01:23.754Z,1168.00
2019-03-03T09:02:23.693Z,1128.00
2019-03-03T09:03:23.583Z,1124.00
2019-03-03T09:04:23.679Z,1200.00
2019-03-03T09:05:23.569Z,1324.00
2019-03-03T09:06:23.592Z,1292.00
2019-03-03T09:07:23.558Z,1184.00
2019-03-03T09:08:23.524Z,1236.00
2019-03-03T09:09:23.503Z,1364.00
2019-03-03T09:10:25.544Z,1260.00
2019-03-03T09:11:23.500Z,1292.00
2019-03-03T09:12:23.498Z,1144.00
2019-03-03T09:13:23.587Z,1080.00
2019-03-03T09:14:23.457Z,1036.00
2019-03-03T09:15:23.448Z,1072.00
2019-03-03T09:16:23.441Z,1028.00
2019-03-03T09:17:23.570Z,1220.00
2019-03-03T09:18:23.437Z,1212.00
2019-03-03T09:19:23.499Z,1212.00
2019-03-03T09:20:23.386Z,1208.00
2019-03-03T09:21:23.382Z,1292.00
2019-03-03T09:22:23.376Z,1272.00
2019-03-03T09:23:23.405Z,1392.00
2019-03-03T09:24:23.334Z,1372.00
2019-03-03T09:25:23.331Z,1400.00
2019-03-03T09:26:23.314Z,1364.00
2019-03-03T09:27:23.309Z,1340.00
2019-03-03T09:28:23.306Z,1256.00
2019-03-03T09:29:23.341Z,1168.00
2019-03-03T09:30:23.286Z,1176.00
2019-03-03T09:31:23.292Z,1220.00
2019-03-03T09:32:23.341Z,1188.00
2019-03-03T09:33:23.329Z,1220.00
2019-03-03T09:34:23.252Z,1200.00
2019-03-03T09:35:23.275Z,1252.00
2019-03-03T09:36:23.215Z,1276.00
2019-03-03T09:37:23.205Z,1268.00
2019-03-03T09:38:23.209Z,1272.00
2019-03-03T09:39:23.260Z,1236.00
2019-03-03T09:40:23.188Z,1284.00
2019-03-03T09:41:23.212Z,1320.00
2019-03-03T09:42:23.166Z,1268.00
2019-03-03T09:43:23.132Z,1252.00
2019-03-03T09:44:23.145Z,1280.00
2019-03-03T09:45:23.123Z,1344.00
2019-03-03T09:46:23.117Z,1396.00
2019-03-03T09:47:23.237Z,1380.00
2019-03-03T09:48:23.179Z,1344.00
2019-03-03T09:49:23.084Z,1360.00
2019-03-03T09:50:23.064Z,1408.00
2019-03-03T09:51:23.115Z,1488.00
2019-03-03T09:52:23.051Z,1552.00
2019-03-03T09:53:23.054Z,1556.00
2019-03-03T09:54:23.012Z,1608.00
2019-03-03T09:55:23.009Z,1600.00
2019-03-03T09:56:23.004Z,1588.00
2019-03-03T09:57:23.133Z,1624.00
2019-03-03T09:58:23.084Z,1576.00
2019-03-03T09:59:22.979Z,1376.00
2019-03-03T10:00:22.949Z,1196.00
2019-03-03T10:01:22.947Z,1492.00
2019-03-03T10:02:22.977Z,1468.00
2019-03-03T10:03:22.936Z,1660.00
2019-03-03T10:04:22.917Z,1724.00
2019-03-03T10:05:22.889Z,1828.00
2019-03-03T10:06:23.039Z,1964.00
2019-03-03T10:07:22.892Z,2032.00
2019-03-03T10:08:22.903Z,1944.00
2019-03-03T10:09:22.899Z,1944.00
2019-03-03T10:10:22.879Z,1908.00
2019-03-03T10:11:22.847Z,1968.00
2019-03-03T10:12:22.831Z,2016.00
2019-03-03T10:13:22.826Z,2048.00
2019-03-03T10:14:23.073Z,2060.00
2019-03-03T10:15:22.837Z,2140.00
2019-03-03T10:16:22.786Z,2224.00
2019-03-03T10:17:22.882Z,2236.00
2019-03-03T10:18:22.823Z,2268.00
2019-03-03T10:19:22.956Z,2292.00
2019-03-03T10:20:22.736Z,2324.00
2019-03-03T10:21:22.772Z,2364.00
2019-03-03T10:22:22.739Z,2396.00
2019-03-03T10:23:23.321Z,2432.00
2019-03-03T10:24:22.711Z,2452.00
2019-03-03T10:25:22.700Z,2480.00
2019-03-03T10:26:23.647Z,2496.00
2019-03-03T10:27:24.011Z,2524.00
2019-03-03T10:28:22.662Z,2556.00
2019-03-03T10:29:22.655Z,2588.00
2019-03-03T10:30:22.628Z,2624.00
2019-03-03T10:31:22.971Z,2648.00
2019-03-03T10:32:22.617Z,2700.00
2019-03-03T10:33:22.630Z,2740.00
2019-03-03T10:34:22.639Z,2772.00
2019-03-03T10:35:22.656Z,2808.00
2019-03-03T10:36:22.555Z,2820.00
2019-03-03T10:37:22.540Z,2840.00
2019-03-03T10:38:22.541Z,2840.00
2019-03-03T10:39:22.815Z,2848.00
2019-03-03T10:40:22.521Z,2828.00
2019-03-03T10:41:22.511Z,2816.00
2019-03-03T10:42:22.563Z,2828.00
2019-03-03T10:43:22.626Z,2844.00
2019-03-03T10:44:22.465Z,2948.00
2019-03-03T10:45:22.555Z,2960.00
2019-03-03T10:46:22.466Z,2972.00
2019-03-03T10:47:22.447Z,2984.00
2019-03-03T10:48:22.493Z,2964.00
2019-03-03T10:49:22.434Z,2916.00
2019-03-03T10:50:22.418Z,2896.00
2019-03-03T10:51:22.453Z,3000.00
2019-03-03T10:52:22.396Z,3020.00
2019-03-03T10:53:22.373Z,2796.00
2019-03-03T10:54:22.374Z,2644.00
2019-03-03T10:55:22.363Z,3000.00
2019-03-03T10:56:22.353Z,2876.00
2019-03-03T10:57:22.393Z,2916.00
2019-03-03T10:58:22.337Z,2952.00
2019-03-03T10:59:22.313Z,2980.00
2019-03-03T11:00:22.302Z,3028.00
2019-03-03T11:01:22.294Z,2956.00
2019-03-03T11:02:22.301Z,2716.00
2019-03-03T11:03:22.299Z,2812.00
2019-03-03T11:04:22.278Z,2928.00
2019-03-03T11:05:22.256Z,2692.00
2019-03-03T11:06:22.234Z,1872.00
2019-03-03T11:07:22.218Z,2836.00
2019-03-03T11:08:22.250Z,1976.00
2019-03-03T11:09:22.213Z,1764.00
2019-03-03T11:10:22.188Z,1656.00
2019-03-03T11:11:22.189Z,1636.00
2019-03-03T11:12:22.174Z,1676.00
2019-03-03T11:13:24.182Z,2200.00
2019-03-03T11:14:22.162Z,1888.00
2019-03-03T11:15:22.151Z,1860.00
2019-03-03T11:16:22.131Z,1844.00
2019-03-03T11:17:22.118Z,1752.00
2019-03-03T11:18:22.108Z,1552.00
2019-03-03T11:19:22.250Z,1516.00
2019-03-03T11:20:22.072Z,1700.00
2019-03-03T11:21:22.079Z,1524.00
2019-03-03T11:22:22.099Z,2040.00
2019-03-03T11:23:22.058Z,1852.00
2019-03-03T11:24:22.050Z,1540.00
2019-03-03T11:25:22.059Z,2152.00
2019-03-03T11:26:22.018Z,2596.00
2019-03-03T11:27:22.026Z,1824.00
2019-03-03T11:28:23.995Z,1568.00
2019-03-03T11:29:21.994Z,1716.00
2019-03-03T11:30:22.003Z,1908.00
2019-03-03T11:31:21.972Z,2512.00
2019-03-03T11:32:21.949Z,2364.00
2019-03-03T11:33:21.946Z,2812.00
2019-03-03T11:34:21.930Z,2428.00
2019-03-03T11:35:21.924Z,2248.00
2019-03-03T11:36:21.937Z,1772.00
2019-03-03T11:37:21.997Z,2192.00
2019-03-03T11:38:21.931Z,2336.00
2019-03-03T11:39:22.011Z,2176.00
2019-03-03T11:40:22.054Z,2208.00
2019-03-03T11:41:21.873Z,2092.00
2019-03-03T11:42:22.654Z,2720.00
2019-03-03T11:43:21.847Z,2076.00
2019-03-03T11:44:21.845Z,1740.00
2019-03-03T11:45:21.825Z,1696.00
2019-03-03T11:46:21.850Z,1816.00
2019-03-03T11:47:21.885Z,2052.00
2019-03-03T11:48:21.787Z,1888.00
2019-03-03T11:49:21.783Z,1700.00
2019-03-03T11:50:21.779Z,1768.00
2019-03-03T11:51:21.795Z,1820.00
2019-03-03T11:52:21.748Z,2024.00
2019-03-03T11:53:21.749Z,2312.00
2019-03-03T11:54:21.722Z,2188.00
2019-03-03T11:55:21.721Z,2652.00
2019-03-03T11:56:21.715Z,2420.00
2019-03-03T11:57:21.943Z,2236.00
2019-03-03T11:58:21.691Z,1972.00
2019-03-03T11:59:21.678Z,2096.00
2019-03-03T12:00:21.666Z,2472.00
2019-03-03T12:01:21.656Z,2320.00
2019-03-03T12:02:22.440Z,2308.00
2019-03-03T12:03:21.680Z,2208.00
2019-03-03T12:04:21.718Z,2216.00
2019-03-03T12:05:21.614Z,2196.00
2019-03-03T12:06:21.608Z,2108.00
2019-03-03T12:07:21.576Z,2236.00
2019-03-03T12:08:21.571Z,2248.00
2019-03-03T12:09:21.669Z,1720.00
2019-03-03T12:10:21.565Z,2028.00
2019-03-03T12:11:21.551Z,2088.00
2019-03-03T12:12:21.667Z,2140.00
2019-03-03T12:13:21.531Z,2164.00
2019-03-03T12:14:21.507Z,2116.00
2019-03-03T12:15:21.534Z,2060.00
2019-03-03T12:16:21.484Z,1896.00
2019-03-03T12:17:21.475Z,1992.00
2019-03-03T12:18:21.474Z,1976.00
2019-03-03T12:19:21.462Z,1956.00
2019-03-03T12:20:21.498Z,1952.00
2019-03-03T12:21:21.417Z,1944.00
2019-03-03T12:22:21.431Z,1940.00
2019-03-03T12:23:21.424Z,1872.00
2019-03-03T12:24:21.394Z,1752.00
2019-03-03T12:25:21.852Z,1768.00
2019-03-03T12:26:21.430Z,1780.00
2019-03-03T12:27:21.373Z,1776.00
2019-03-03T12:28:21.339Z,1728.00
2019-03-03T12:29:21.451Z,1628.00
2019-03-03T12:30:21.394Z,1412.00
2019-03-03T12:31:21.326Z,1716.00
2019-03-03T12:32:21.460Z,1676.00
2019-03-03T12:33:21.417Z,1604.00
2019-03-03T12:34:21.281Z,1532.00
2019-03-03T12:35:21.273Z,1500.00
2019-03-03T12:36:21.265Z,1524.00
2019-03-03T12:37:21.265Z,1564.00
2019-03-03T12:38:21.293Z,1592.00
2019-03-03T12:39:21.247Z,1580.00
2019-03-03T12:40:21.232Z,1556.00
2019-03-03T12:41:21.287Z,1524.00
2019-03-03T12:42:21.201Z,1548.00
2019-03-03T12:43:21.292Z,1536.00
2019-03-03T12:44:21.207Z,1496.00